sensor_id;sensor_type;location;lat;lon;timestamp;pressure;altitude;pressure_sealevel;temperature;humidity
550;BME280;20066;48.764;9.176;2023-03-18T00:01:37;97735.97;;;14.92;40.32
550;BME280;20066;48.764;9.176;2023-03-18T00:04:05;97736.50;;;14.71;40.59
550;BME280;20066;48.764;9.176;2023-03-18T00:06:35;97737.72;;;15.18;39.27
550;BME280;20066;48.764;9.176;2023-03-18T00:09:04;97732.25;;;15.51;38.76
550;BME280;20066;48.764;9.176;2023-03-18T00:11:34;97732.25;;;15.51;39.56
550;BME280;20066;48.764;9.176;2023-03-18T00:14:01;97733.38;;;15.37;39.84
550;BME280;20066;48.764;9.176;2023-03-18T00:16:29;97723.63;;;15.23;39.79
550;BME280;20066;48.764;9.176;2023-03-18T00:18:57;97725.06;;;15.44;39.86
550;BME280;20066;48.764;9.176;2023-03-18T00:21:25;97730.53;;;15.57;39.86
550;BME280;20066;48.764;9.176;2023-03-18T00:23:53;97730.06;;;15.46;40.20
550;BME280;20066;48.764;9.176;2023-03-18T00:26:22;97734.72;;;15.45;40.05
550;BME280;20066;48.764;9.176;2023-03-18T00:28:53;97735.06;;;14.82;40.89
550;BME280;20066;48.764;9.176;2023-03-18T00:31:21;97736.19;;;15.17;39.45
550;BME280;20066;48.764;9.176;2023-03-18T00:33:50;97743.22;;;14.46;39.54
550;BME280;20066;48.764;9.176;2023-03-18T00:36:18;97746.81;;;14.59;39.18
550;BME280;20066;48.764;9.176;2023-03-18T00:38:52;97751.97;;;14.86;38.99
550;BME280;20066;48.764;9.176;2023-03-18T00:41:24;97753.75;;;15.09;39.11
550;BME280;20066;48.764;9.176;2023-03-18T00:43:53;97758.97;;;15.20;39.33
550;BME280;20066;48.764;9.176;2023-03-18T00:46:23;97767.69;;;15.27;39.32
550;BME280;20066;48.764;9.176;2023-03-18T00:48:53;97771.56;;;15.26;39.50
550;BME280;20066;48.764;9.176;2023-03-18T00:51:22;97764.59;;;15.09;39.76
550;BME280;20066;48.764;9.176;2023-03-18T00:53:53;97764.69;;;15.38;39.42
550;BME280;20066;48.764;9.176;2023-03-18T00:56:22;97766.38;;;14.83;40.78
550;BME280;20066;48.764;9.176;2023-03-18T00:58:53;97760.22;;;14.99;40.29
550;BME280;20066;48.764;9.176;2023-03-18T01:01:21;97769.97;;;14.60;41.33
550;BME280;20066;48.764;9.176;2023-03-18T01:03:49;97765.25;;;14.28;41.48
550;BME280;20066;48.764;9.176;2023-03-18T01:06:21;97756.91;;;14.00;40.84
550;BME280;20066;48.764;9.176;2023-03-18T01:08:50;97752.41;;;13.93;40.57
550;BME280;20066;48.764;9.176;2023-03-18T01:11:18;97759.75;;;13.73;40.35
550;BME280;20066;48.764;9.176;2023-03-18T01:13:46;97759.34;;;13.74;39.83
550;BME280;20066;48.764;9.176;2023-03-18T01:16:15;97769.69;;;14.91;37.81
550;BME280;20066;48.764;9.176;2023-03-18T01:18:44;97767.91;;;14.48;38.64
550;BME280;20066;48.764;9.176;2023-03-18T01:21:13;97763.59;;;14.87;38.13
550;BME280;20066;48.764;9.176;2023-03-18T01:23:43;97761.72;;;14.67;38.01
550;BME280;20066;48.764;9.176;2023-03-18T01:26:12;97775.88;;;14.91;37.43
550;BME280;20066;48.764;9.176;2023-03-18T01:28:40;97761.94;;;14.21;38.32
550;BME280;20066;48.764;9.176;2023-03-18T01:31:08;97759.69;;;14.36;38.14
550;BME280;20066;48.764;9.176;2023-03-18T01:33:39;97760.53;;;14.85;37.38
550;BME280;20066;48.764;9.176;2023-03-18T01:36:08;97753.56;;;13.92;38.65
550;BME280;20066;48.764;9.176;2023-03-18T01:38:37;97747.44;;;14.11;38.20
550;BME280;20066;48.764;9.176;2023-03-18T01:41:06;97746.50;;;13.78;38.92
550;BME280;20066;48.764;9.176;2023-03-18T01:43:37;97746.22;;;14.84;37.54
550;BME280;20066;48.764;9.176;2023-03-18T01:46:33;97743.09;;;15.79;35.82
550;BME280;20066;48.764;9.176;2023-03-18T01:49:08;97742.47;;;15.88;36.26
550;BME280;20066;48.764;9.176;2023-03-18T01:51:39;97757.03;;;15.65;38.12
550;BME280;20066;48.764;9.176;2023-03-18T01:54:10;97756.28;;;14.32;39.19
550;BME280;20066;48.764;9.176;2023-03-18T01:56:40;97752.81;;;13.72;39.84
550;BME280;20066;48.764;9.176;2023-03-18T01:59:10;97752.50;;;14.45;38.18
550;BME280;20066;48.764;9.176;2023-03-18T02:01:40;97754.03;;;14.82;37.68
550;BME280;20066;48.764;9.176;2023-03-18T02:04:12;97753.00;;;15.09;36.97
550;BME280;20066;48.764;9.176;2023-03-18T02:06:39;97752.59;;;15.26;36.95
550;BME280;20066;48.764;9.176;2023-03-18T02:09:08;97757.69;;;15.24;36.82
550;BME280;20066;48.764;9.176;2023-03-18T02:11:37;97753.31;;;15.59;36.86
550;BME280;20066;48.764;9.176;2023-03-18T02:14:08;97745.56;;;15.74;36.30
550;BME280;20066;48.764;9.176;2023-03-18T02:16:42;97745.91;;;15.31;36.66
550;BME280;20066;48.764;9.176;2023-03-18T02:19:25;97744.47;;;15.26;37.03
550;BME280;20066;48.764;9.176;2023-03-18T02:22:04;97739.78;;;15.59;36.93
550;BME280;20066;48.764;9.176;2023-03-18T02:24:40;97748.09;;;13.96;38.92
550;BME280;20066;48.764;9.176;2023-03-18T02:27:16;97757.59;;;13.84;39.11
550;BME280;20066;48.764;9.176;2023-03-18T02:29:45;97752.13;;;14.27;38.54
550;BME280;20066;48.764;9.176;2023-03-18T02:32:14;97754.13;;;14.43;37.80
550;BME280;20066;48.764;9.176;2023-03-18T02:34:43;97752.53;;;14.61;37.77
550;BME280;20066;48.764;9.176;2023-03-18T02:37:11;97760.22;;;15.31;36.60
550;BME280;20066;48.764;9.176;2023-03-18T02:39:39;97763.44;;;15.42;36.41
550;BME280;20066;48.764;9.176;2023-03-18T02:42:10;97751.09;;;13.81;39.54
550;BME280;20066;48.764;9.176;2023-03-18T02:44:43;97746.22;;;13.93;39.18
550;BME280;20066;48.764;9.176;2023-03-18T02:47:13;97751.72;;;13.46;39.83
550;BME280;20066;48.764;9.176;2023-03-18T02:49:43;97762.59;;;13.85;39.12
550;BME280;20066;48.764;9.176;2023-03-18T02:52:11;97756.72;;;13.90;39.23
550;BME280;20066;48.764;9.176;2023-03-18T02:54:39;97756.63;;;13.94;39.14
550;BME280;20066;48.764;9.176;2023-03-18T02:57:07;97758.00;;;14.06;38.65
550;BME280;20066;48.764;9.176;2023-03-18T02:59:35;97768.03;;;14.77;37.71
550;BME280;20066;48.764;9.176;2023-03-18T03:02:04;97766.09;;;15.14;36.89
550;BME280;20066;48.764;9.176;2023-03-18T03:04:32;97766.47;;;14.96;37.68
550;BME280;20066;48.764;9.176;2023-03-18T03:07:00;97764.91;;;14.62;37.84
550;BME280;20066;48.764;9.176;2023-03-18T03:09:28;97758.34;;;13.65;39.98
550;BME280;20066;48.764;9.176;2023-03-18T03:11:56;97765.63;;;13.68;39.97
550;BME280;20066;48.764;9.176;2023-03-18T03:14:24;97776.44;;;14.47;38.71
550;BME280;20066;48.764;9.176;2023-03-18T03:16:51;97781.06;;;14.66;38.04
550;BME280;20066;48.764;9.176;2023-03-18T03:19:21;97783.59;;;15.25;37.02
550;BME280;20066;48.764;9.176;2023-03-18T03:21:49;97775.66;;;14.66;37.77
550;BME280;20066;48.764;9.176;2023-03-18T03:24:16;97780.50;;;14.19;38.98
550;BME280;20066;48.764;9.176;2023-03-18T03:26:44;97774.91;;;14.46;38.86
550;BME280;20066;48.764;9.176;2023-03-18T03:29:12;97778.91;;;15.10;37.75
550;BME280;20066;48.764;9.176;2023-03-18T03:31:39;97791.91;;;15.34;37.61
550;BME280;20066;48.764;9.176;2023-03-18T03:34:07;97786.28;;;15.41;37.39
550;BME280;20066;48.764;9.176;2023-03-18T03:36:37;97784.88;;;14.68;38.48
550;BME280;20066;48.764;9.176;2023-03-18T03:39:05;97784.34;;;14.57;38.59
550;BME280;20066;48.764;9.176;2023-03-18T03:41:33;97787.78;;;14.42;38.74
550;BME280;20066;48.764;9.176;2023-03-18T03:44:01;97788.91;;;14.24;38.96
550;BME280;20066;48.764;9.176;2023-03-18T03:46:28;97797.81;;;14.02;39.43
550;BME280;20066;48.764;9.176;2023-03-18T03:48:56;97802.34;;;13.65;40.22
550;BME280;20066;48.764;9.176;2023-03-18T03:51:24;97797.78;;;13.39;41.00
550;BME280;20066;48.764;9.176;2023-03-18T03:53:53;97790.69;;;13.68;40.46
550;BME280;20066;48.764;9.176;2023-03-18T03:56:21;97793.06;;;13.66;40.56
550;BME280;20066;48.764;9.176;2023-03-18T03:58:49;97793.28;;;13.75;40.19
550;BME280;20066;48.764;9.176;2023-03-18T04:01:17;97789.97;;;13.44;40.85
550;BME280;20066;48.764;9.176;2023-03-18T04:03:44;97790.47;;;12.86;42.30
550;BME280;20066;48.764;9.176;2023-03-18T04:06:12;97789.78;;;13.55;40.60
550;BME280;20066;48.764;9.176;2023-03-18T04:08:40;97792.66;;;13.21;41.49
550;BME280;20066;48.764;9.176;2023-03-18T04:11:10;97786.22;;;13.81;40.18
550;BME280;20066;48.764;9.176;2023-03-18T04:13:38;97792.09;;;13.76;40.20
550;BME280;20066;48.764;9.176;2023-03-18T04:16:06;97798.56;;;14.06;40.11
550;BME280;20066;48.764;9.176;2023-03-18T04:18:35;97794.56;;;14.30;39.74
550;BME280;20066;48.764;9.176;2023-03-18T04:21:03;97799.63;;;14.84;39.29
550;BME280;20066;48.764;9.176;2023-03-18T04:23:31;97795.25;;;14.90;39.90
550;BME280;20066;48.764;9.176;2023-03-18T04:25:59;97803.69;;;14.92;40.34
550;BME280;20066;48.764;9.176;2023-03-18T04:28:28;97805.34;;;14.70;40.46
550;BME280;20066;48.764;9.176;2023-03-18T04:30:56;97806.59;;;15.01;39.92
550;BME280;20066;48.764;9.176;2023-03-18T04:33:23;97811.34;;;14.61;40.97
550;BME280;20066;48.764;9.176;2023-03-18T04:35:51;97812.00;;;14.29;40.83
550;BME280;20066;48.764;9.176;2023-03-18T04:38:19;97803.53;;;13.84;41.32
550;BME280;20066;48.764;9.176;2023-03-18T04:40:47;97799.00;;;14.01;40.94
550;BME280;20066;48.764;9.176;2023-03-18T04:43:15;97807.56;;;12.49;43.33
550;BME280;20066;48.764;9.176;2023-03-18T04:45:44;97805.75;;;12.38;43.37
550;BME280;20066;48.764;9.176;2023-03-18T04:48:11;97806.16;;;12.98;42.71
550;BME280;20066;48.764;9.176;2023-03-18T04:50:39;97808.81;;;12.41;43.30
550;BME280;20066;48.764;9.176;2023-03-18T04:53:07;97807.25;;;12.43;43.66
550;BME280;20066;48.764;9.176;2023-03-18T04:55:35;97809.88;;;12.50;43.34
550;BME280;20066;48.764;9.176;2023-03-18T04:58:03;97807.41;;;12.59;42.93
550;BME280;20066;48.764;9.176;2023-03-18T05:00:31;97805.75;;;12.69;42.88
550;BME280;20066;48.764;9.176;2023-03-18T05:03:00;97808.97;;;13.37;41.29
550;BME280;20066;48.764;9.176;2023-03-18T05:05:29;97810.56;;;14.05;40.22
550;BME280;20066;48.764;9.176;2023-03-18T05:07:57;97805.25;;;13.98;40.37
550;BME280;20066;48.764;9.176;2023-03-18T05:10:25;97800.28;;;14.36;40.46
550;BME280;20066;48.764;9.176;2023-03-18T05:12:53;97797.47;;;14.00;41.01
550;BME280;20066;48.764;9.176;2023-03-18T05:15:21;97790.13;;;14.00;41.01
550;BME280;20066;48.764;9.176;2023-03-18T05:17:48;97799.72;;;14.05;41.59
550;BME280;20066;48.764;9.176;2023-03-18T05:20:18;97806.38;;;13.77;41.71
550;BME280;20066;48.764;9.176;2023-03-18T05:22:46;97812.28;;;13.72;42.27
550;BME280;20066;48.764;9.176;2023-03-18T05:25:14;97813.19;;;13.85;41.96
550;BME280;20066;48.764;9.176;2023-03-18T05:27:41;97811.91;;;13.70;42.28
550;BME280;20066;48.764;9.176;2023-03-18T05:30:10;97815.88;;;13.65;42.04
550;BME280;20066;48.764;9.176;2023-03-18T05:32:38;97822.16;;;13.59;42.27
550;BME280;20066;48.764;9.176;2023-03-18T05:35:07;97819.97;;;13.73;42.14
550;BME280;20066;48.764;9.176;2023-03-18T05:37:37;97817.41;;;13.43;42.70
550;BME280;20066;48.764;9.176;2023-03-18T05:40:06;97821.94;;;13.49;42.53
550;BME280;20066;48.764;9.176;2023-03-18T05:42:37;97823.25;;;13.38;42.98
550;BME280;20066;48.764;9.176;2023-03-18T05:45:21;97824.44;;;13.60;42.48
550;BME280;20066;48.764;9.176;2023-03-18T05:47:48;97822.50;;;13.61;42.93
550;BME280;20066;48.764;9.176;2023-03-18T05:50:29;97820.84;;;13.20;43.62
550;BME280;20066;48.764;9.176;2023-03-18T05:52:58;97814.16;;;13.28;43.15
550;BME280;20066;48.764;9.176;2023-03-18T05:55:26;97827.03;;;13.44;43.23
550;BME280;20066;48.764;9.176;2023-03-18T05:57:55;97817.94;;;13.34;43.42
550;BME280;20066;48.764;9.176;2023-03-18T06:00:24;97818.59;;;13.15;43.85
550;BME280;20066;48.764;9.176;2023-03-18T06:02:54;97820.28;;;13.32;43.12
550;BME280;20066;48.764;9.176;2023-03-18T06:05:22;97819.66;;;13.44;42.77
550;BME280;20066;48.764;9.176;2023-03-18T06:07:51;97820.53;;;13.14;43.31
550;BME280;20066;48.764;9.176;2023-03-18T06:10:21;97828.41;;;13.05;43.43
550;BME280;20066;48.764;9.176;2023-03-18T06:12:51;97827.34;;;13.23;43.12
550;BME280;20066;48.764;9.176;2023-03-18T06:15:20;97827.25;;;13.30;42.98
550;BME280;20066;48.764;9.176;2023-03-18T06:17:48;97825.75;;;13.29;43.41
550;BME280;20066;48.764;9.176;2023-03-18T06:20:18;97826.81;;;13.35;43.15
550;BME280;20066;48.764;9.176;2023-03-18T06:22:46;97831.03;;;12.82;43.47
550;BME280;20066;48.764;9.176;2023-03-18T06:25:17;97839.44;;;12.88;44.25
550;BME280;20066;48.764;9.176;2023-03-18T06:27:47;97839.66;;;13.00;43.85
550;BME280;20066;48.764;9.176;2023-03-18T06:30:16;97843.66;;;13.16;43.31
550;BME280;20066;48.764;9.176;2023-03-18T06:32:49;97839.53;;;13.07;43.30
550;BME280;20066;48.764;9.176;2023-03-18T06:35:19;97839.28;;;12.98;43.99
550;BME280;20066;48.764;9.176;2023-03-18T06:37:47;97839.63;;;12.73;43.91
550;BME280;20066;48.764;9.176;2023-03-18T06:40:15;97839.53;;;13.07;43.50
550;BME280;20066;48.764;9.176;2023-03-18T06:42:44;97835.94;;;13.18;43.36
550;BME280;20066;48.764;9.176;2023-03-18T06:45:13;97837.72;;;13.28;43.21
550;BME280;20066;48.764;9.176;2023-03-18T06:47:42;97843.81;;;13.32;43.26
550;BME280;20066;48.764;9.176;2023-03-18T06:50:11;97837.50;;;12.58;44.62
550;BME280;20066;48.764;9.176;2023-03-18T06:52:40;97841.94;;;12.07;45.76
550;BME280;20066;48.764;9.176;2023-03-18T06:55:09;97835.06;;;12.67;44.93
550;BME280;20066;48.764;9.176;2023-03-18T06:57:37;97838.47;;;12.74;45.35
550;BME280;20066;48.764;9.176;2023-03-18T07:00:07;97839.44;;;13.14;44.47
550;BME280;20066;48.764;9.176;2023-03-18T07:02:37;97845.63;;;12.54;44.06
550;BME280;20066;48.764;9.176;2023-03-18T07:05:06;97843.53;;;13.26;44.26
550;BME280;20066;48.764;9.176;2023-03-18T07:07:34;97841.41;;;13.37;43.92
550;BME280;20066;48.764;9.176;2023-03-18T07:10:04;97846.06;;;13.60;43.59
550;BME280;20066;48.764;9.176;2023-03-18T07:12:32;97853.34;;;13.40;44.28
550;BME280;20066;48.764;9.176;2023-03-18T07:15:00;97854.88;;;13.64;43.65
550;BME280;20066;48.764;9.176;2023-03-18T07:17:27;97850.53;;;13.70;43.63
550;BME280;20066;48.764;9.176;2023-03-18T07:19:57;97861.56;;;13.79;43.83
550;BME280;20066;48.764;9.176;2023-03-18T07:22:25;97849.28;;;13.98;42.96
550;BME280;20066;48.764;9.176;2023-03-18T07:24:53;97858.38;;;13.84;43.44
550;BME280;20066;48.764;9.176;2023-03-18T07:27:20;97859.75;;;13.49;43.67
550;BME280;20066;48.764;9.176;2023-03-18T07:29:49;97849.94;;;13.09;42.10
550;BME280;20066;48.764;9.176;2023-03-18T07:32:17;97856.13;;;13.83;42.99
550;BME280;20066;48.764;9.176;2023-03-18T07:34:45;97858.25;;;13.91;40.61
550;BME280;20066;48.764;9.176;2023-03-18T07:37:15;97868.13;;;14.45;40.07
550;BME280;20066;48.764;9.176;2023-03-18T07:39:43;97859.19;;;14.84;40.16
550;BME280;20066;48.764;9.176;2023-03-18T07:42:11;97869.28;;;14.24;39.34
550;BME280;20066;48.764;9.176;2023-03-18T07:44:39;97867.56;;;14.73;38.67
550;BME280;20066;48.764;9.176;2023-03-18T07:47:06;97868.88;;;15.01;37.13
550;BME280;20066;48.764;9.176;2023-03-18T07:49:34;97873.19;;;14.00;39.12
550;BME280;20066;48.764;9.176;2023-03-18T07:52:02;97862.84;;;14.18;38.55
550;BME280;20066;48.764;9.176;2023-03-18T07:54:31;97871.16;;;14.47;38.28
550;BME280;20066;48.764;9.176;2023-03-18T07:57:00;97868.88;;;14.25;38.80
550;BME280;20066;48.764;9.176;2023-03-18T07:59:33;97874.34;;;14.61;37.88
550;BME280;20066;48.764;9.176;2023-03-18T08:02:01;97869.22;;;14.47;38.43
550;BME280;20066;48.764;9.176;2023-03-18T08:04:30;97871.38;;;14.56;38.57
550;BME280;20066;48.764;9.176;2023-03-18T08:06:58;97867.69;;;15.02;37.59
550;BME280;20066;48.764;9.176;2023-03-18T08:09:26;97877.25;;;14.90;37.51
550;BME280;20066;48.764;9.176;2023-03-18T08:11:55;97879.94;;;17.07;34.06
550;BME280;20066;48.764;9.176;2023-03-18T08:14:23;97881.50;;;20.18;29.48
550;BME280;20066;48.764;9.176;2023-03-18T08:16:51;97878.75;;;22.96;25.15
550;BME280;20066;48.764;9.176;2023-03-18T08:19:19;97885.88;;;26.44;21.82
550;BME280;20066;48.764;9.176;2023-03-18T08:21:47;97886.47;;;27.32;19.81
550;BME280;20066;48.764;9.176;2023-03-18T08:24:14;97894.25;;;29.91;18.37
550;BME280;20066;48.764;9.176;2023-03-18T08:26:42;97892.13;;;30.59;17.29
550;BME280;20066;48.764;9.176;2023-03-18T08:29:12;97898.69;;;29.51;18.46
550;BME280;20066;48.764;9.176;2023-03-18T08:31:40;97889.53;;;33.11;15.57
550;BME280;20066;48.764;9.176;2023-03-18T08:34:08;97893.63;;;30.79;15.85
550;BME280;20066;48.764;9.176;2023-03-18T08:36:36;97892.41;;;29.21;17.94
550;BME280;20066;48.764;9.176;2023-03-18T08:39:04;97889.50;;;30.29;17.06
550;BME280;20066;48.764;9.176;2023-03-18T08:41:32;97905.38;;;34.66;14.15
550;BME280;20066;48.764;9.176;2023-03-18T08:44:00;97897.31;;;36.07;12.81
550;BME280;20066;48.764;9.176;2023-03-18T08:46:29;97903.63;;;36.22;12.48
550;BME280;20066;48.764;9.176;2023-03-18T08:48:57;97895.88;;;37.35;11.51
550;BME280;20066;48.764;9.176;2023-03-18T08:51:26;97893.63;;;39.64;10.68
550;BME280;20066;48.764;9.176;2023-03-18T08:53:55;97896.44;;;40.41;9.93
550;BME280;20066;48.764;9.176;2023-03-18T08:56:23;97884.75;;;40.25;9.21
550;BME280;20066;48.764;9.176;2023-03-18T08:58:52;97886.06;;;39.11;9.95
550;BME280;20066;48.764;9.176;2023-03-18T09:01:20;97878.13;;;39.27;9.92
550;BME280;20066;48.764;9.176;2023-03-18T09:03:49;97883.53;;;39.05;9.61
550;BME280;20066;48.764;9.176;2023-03-18T09:06:18;97874.81;;;35.90;11.98
550;BME280;20066;48.764;9.176;2023-03-18T09:08:46;97870.34;;;32.19;14.82
550;BME280;20066;48.764;9.176;2023-03-18T09:11:14;97870.06;;;32.09;14.94
550;BME280;20066;48.764;9.176;2023-03-18T09:13:41;97868.44;;;31.22;15.19
550;BME280;20066;48.764;9.176;2023-03-18T09:16:09;97870.25;;;29.45;16.73
550;BME280;20066;48.764;9.176;2023-03-18T09:18:38;97856.38;;;28.91;17.29
550;BME280;20066;48.764;9.176;2023-03-18T09:21:11;97868.69;;;29.49;16.66
550;BME280;20066;48.764;9.176;2023-03-18T09:23:39;97862.91;;;29.47;16.72
550;BME280;20066;48.764;9.176;2023-03-18T09:26:07;97853.25;;;29.60;17.31
550;BME280;20066;48.764;9.176;2023-03-18T09:28:35;97856.59;;;32.47;15.27
550;BME280;20066;48.764;9.176;2023-03-18T09:31:03;97863.03;;;30.04;16.60
550;BME280;20066;48.764;9.176;2023-03-18T09:33:31;97850.59;;;28.07;18.63
550;BME280;20066;48.764;9.176;2023-03-18T09:36:02;97856.22;;;29.37;17.27
550;BME280;20066;48.764;9.176;2023-03-18T09:38:32;97844.06;;;28.04;18.53
550;BME280;20066;48.764;9.176;2023-03-18T09:41:04;97847.19;;;26.17;20.42
550;BME280;20066;48.764;9.176;2023-03-18T09:43:52;97843.41;;;24.86;22.07
550;BME280;20066;48.764;9.176;2023-03-18T09:46:28;97850.28;;;25.39;20.95
550;BME280;20066;48.764;9.176;2023-03-18T09:49:22;97847.06;;;24.06;22.55
550;BME280;20066;48.764;9.176;2023-03-18T09:52:01;97852.88;;;25.11;21.97
550;BME280;20066;48.764;9.176;2023-03-18T09:54:36;97847.56;;;25.87;21.65
550;BME280;20066;48.764;9.176;2023-03-18T09:57:13;97837.25;;;27.03;19.63
550;BME280;20066;48.764;9.176;2023-03-18T09:59:46;97843.91;;;28.32;17.74
550;BME280;20066;48.764;9.176;2023-03-18T10:02:21;97841.03;;;26.89;19.08
550;BME280;20066;48.764;9.176;2023-03-18T10:04:52;97837.16;;;28.68;17.70
550;BME280;20066;48.764;9.176;2023-03-18T10:07:28;97828.06;;;26.02;20.82
550;BME280;20066;48.764;9.176;2023-03-18T10:10:02;97836.59;;;30.91;16.27
550;BME280;20066;48.764;9.176;2023-03-18T10:12:34;97830.25;;;32.69;14.63
550;BME280;20066;48.764;9.176;2023-03-18T10:15:14;97821.09;;;30.95;15.74
550;BME280;20066;48.764;9.176;2023-03-18T10:17:47;97834.50;;;29.41;17.69
550;BME280;20066;48.764;9.176;2023-03-18T10:20:20;97834.66;;;29.73;17.59
550;BME280;20066;48.764;9.176;2023-03-18T10:23:01;97830.25;;;30.77;16.27
550;BME280;20066;48.764;9.176;2023-03-18T10:25:35;97828.44;;;31.25;15.28
550;BME280;20066;48.764;9.176;2023-03-18T10:28:30;97831.28;;;30.23;16.20
550;BME280;20066;48.764;9.176;2023-03-18T10:31:07;97832.44;;;29.91;16.95
550;BME280;20066;48.764;9.176;2023-03-18T10:33:44;97823.06;;;28.96;17.80
550;BME280;20066;48.764;9.176;2023-03-18T10:36:17;97820.75;;;28.70;18.77
550;BME280;20066;48.764;9.176;2023-03-18T10:38:48;97830.66;;;29.93;17.21
550;BME280;20066;48.764;9.176;2023-03-18T10:41:21;97830.78;;;29.82;16.90
550;BME280;20066;48.764;9.176;2023-03-18T10:43:55;97827.41;;;29.89;16.75
550;BME280;20066;48.764;9.176;2023-03-18T10:46:24;97819.78;;;31.28;15.89
550;BME280;20066;48.764;9.176;2023-03-18T10:48:57;97813.78;;;30.47;16.67
550;BME280;20066;48.764;9.176;2023-03-18T10:51:30;97815.41;;;28.48;18.09
550;BME280;20066;48.764;9.176;2023-03-18T10:54:05;97815.38;;;29.14;18.04
550;BME280;20066;48.764;9.176;2023-03-18T10:56:37;97805.97;;;28.27;18.92
550;BME280;20066;48.764;9.176;2023-03-18T10:59:10;97808.16;;;25.27;20.83
550;BME280;20066;48.764;9.176;2023-03-18T11:01:38;97803.06;;;22.60;23.62
550;BME280;20066;48.764;9.176;2023-03-18T11:04:12;97800.69;;;22.68;23.86
550;BME280;20066;48.764;9.176;2023-03-18T11:06:44;97795.16;;;23.67;23.05
550;BME280;20066;48.764;9.176;2023-03-18T11:09:18;97798.66;;;25.28;21.11
550;BME280;20066;48.764;9.176;2023-03-18T11:14:49;97784.13;;;24.08;21.93
550;BME280;20066;48.764;9.176;2023-03-18T11:17:21;97788.97;;;25.98;20.77
550;BME280;20066;48.764;9.176;2023-03-18T11:19:59;97792.41;;;25.82;20.18
550;BME280;20066;48.764;9.176;2023-03-18T11:25:04;97782.41;;;25.90;20.41
550;BME280;20066;48.764;9.176;2023-03-18T11:27:37;97782.38;;;27.68;18.73
550;BME280;20066;48.764;9.176;2023-03-18T11:30:20;97780.28;;;26.77;18.63
550;BME280;20066;48.764;9.176;2023-03-18T11:33:13;97779.41;;;28.48;17.31
550;BME280;20066;48.764;9.176;2023-03-18T11:35:44;97776.22;;;28.98;16.51
550;BME280;20066;48.764;9.176;2023-03-18T11:38:19;97768.47;;;27.85;16.85
550;BME280;20066;48.764;9.176;2023-03-18T11:41:06;97776.00;;;27.90;17.11
550;BME280;20066;48.764;9.176;2023-03-18T11:43:36;97774.25;;;28.63;16.79
550;BME280;20066;48.764;9.176;2023-03-18T11:46:07;97769.00;;;29.81;16.38
550;BME280;20066;48.764;9.176;2023-03-18T11:48:38;97775.34;;;29.33;15.35
550;BME280;20066;48.764;9.176;2023-03-18T11:51:38;97769.41;;;27.41;16.22
550;BME280;20066;48.764;9.176;2023-03-18T11:54:34;97760.50;;;27.65;16.49
550;BME280;20066;48.764;9.176;2023-03-18T11:57:11;97755.56;;;23.54;20.24
550;BME280;20066;48.764;9.176;2023-03-18T11:59:53;97745.19;;;23.63;20.06
550;BME280;20066;48.764;9.176;2023-03-18T12:02:55;97738.13;;;22.52;20.83
550;BME280;20066;48.764;9.176;2023-03-18T12:05:40;97746.38;;;23.83;20.71
550;BME280;20066;48.764;9.176;2023-03-18T12:08:30;97736.78;;;23.12;21.35
550;BME280;20066;48.764;9.176;2023-03-18T12:11:06;97742.22;;;21.74;22.93
550;BME280;20066;48.764;9.176;2023-03-18T12:13:48;97740.38;;;22.68;22.40
550;BME280;20066;48.764;9.176;2023-03-18T12:16:29;97731.91;;;22.22;22.33
550;BME280;20066;48.764;9.176;2023-03-18T12:19:09;97736.34;;;23.54;21.18
550;BME280;20066;48.764;9.176;2023-03-18T12:21:51;97726.31;;;22.46;22.53
550;BME280;20066;48.764;9.176;2023-03-18T12:24:34;97727.63;;;21.91;23.32
550;BME280;20066;48.764;9.176;2023-03-18T12:27:16;97723.09;;;22.97;22.49
550;BME280;20066;48.764;9.176;2023-03-18T12:30:09;97715.69;;;22.04;23.42
550;BME280;20066;48.764;9.176;2023-03-18T12:32:48;97709.47;;;21.65;23.76
550;BME280;20066;48.764;9.176;2023-03-18T12:35:35;97710.06;;;21.98;23.50
550;BME280;20066;48.764;9.176;2023-03-18T12:38:21;97714.81;;;24.18;21.75
550;BME280;20066;48.764;9.176;2023-03-18T12:41:03;97713.28;;;26.04;19.75
550;BME280;20066;48.764;9.176;2023-03-18T12:43:44;97704.22;;;25.82;19.28
550;BME280;20066;48.764;9.176;2023-03-18T12:46:24;97703.50;;;26.15;18.91
550;BME280;20066;48.764;9.176;2023-03-18T12:49:00;97702.03;;;26.14;19.81
550;BME280;20066;48.764;9.176;2023-03-18T12:51:38;97697.63;;;24.98;19.69
550;BME280;20066;48.764;9.176;2023-03-18T12:54:13;97705.53;;;24.16;19.76
550;BME280;20066;48.764;9.176;2023-03-18T12:56:50;97692.25;;;23.63;20.31
550;BME280;20066;48.764;9.176;2023-03-18T12:59:24;97694.75;;;22.36;22.79
550;BME280;20066;48.764;9.176;2023-03-18T13:02:05;97700.72;;;23.19;22.61
550;BME280;20066;48.764;9.176;2023-03-18T13:04:38;97694.63;;;24.01;22.06
550;BME280;20066;48.764;9.176;2023-03-18T13:07:18;97687.94;;;24.34;21.06
550;BME280;20066;48.764;9.176;2023-03-18T13:09:53;97685.78;;;24.17;20.96
550;BME280;20066;48.764;9.176;2023-03-18T13:12:27;97687.78;;;24.17;20.86
550;BME280;20066;48.764;9.176;2023-03-18T13:15:00;97682.16;;;22.93;21.47
550;BME280;20066;48.764;9.176;2023-03-18T13:17:31;97690.84;;;24.25;20.36
550;BME280;20066;48.764;9.176;2023-03-18T13:20:01;97685.88;;;24.97;20.25
550;BME280;20066;48.764;9.176;2023-03-18T13:22:59;97680.06;;;24.21;20.62
550;BME280;20066;48.764;9.176;2023-03-18T13:25:37;97678.91;;;22.75;21.39
550;BME280;20066;48.764;9.176;2023-03-18T13:28:21;97675.13;;;24.25;19.88
550;BME280;20066;48.764;9.176;2023-03-18T13:31:02;97676.19;;;25.18;19.16
550;BME280;20066;48.764;9.176;2023-03-18T13:33:58;97686.88;;;24.63;19.36
550;BME280;20066;48.764;9.176;2023-03-18T13:40:11;97679.97;;;25.26;18.33
550;BME280;20066;48.764;9.176;2023-03-18T13:42:46;97682.16;;;22.73;19.97
550;BME280;20066;48.764;9.176;2023-03-18T13:45:23;97680.00;;;22.83;19.98
550;BME280;20066;48.764;9.176;2023-03-18T13:47:55;97682.44;;;23.16;20.28
550;BME280;20066;48.764;9.176;2023-03-18T13:50:35;97678.41;;;23.11;20.15
550;BME280;20066;48.764;9.176;2023-03-18T13:53:17;97676.53;;;22.67;20.39
550;BME280;20066;48.764;9.176;2023-03-18T13:55:58;97678.59;;;23.08;19.90